createdAt,value
2023-03-24T00:00:25.783Z,11.89
2023-03-24T00:02:52.673Z,11.83
2023-03-24T00:05:22.979Z,11.76
2023-03-24T00:07:54.368Z,11.79
2023-03-24T00:10:22.619Z,11.77
2023-03-24T00:12:50.893Z,11.79
2023-03-24T00:15:21.630Z,11.72
2023-03-24T00:17:52.833Z,11.76
2023-03-24T00:20:22.623Z,11.70
2023-03-24T00:22:57.668Z,11.66
2023-03-24T00:25:29.439Z,11.70
2023-03-24T00:27:57.465Z,11.69
2023-03-24T00:30:25.930Z,11.65
2023-03-24T00:32:52.889Z,11.69
2023-03-24T00:35:20.284Z,11.72
2023-03-24T00:37:47.723Z,11.72
2023-03-24T00:40:18.221Z,11.76
2023-03-24T00:42:47.663Z,11.76
2023-03-24T00:45:19.673Z,11.70
2023-03-24T00:47:49.798Z,11.70
2023-03-24T00:50:20.422Z,11.62
2023-03-24T00:52:48.951Z,11.63
2023-03-24T00:55:16.366Z,11.74
2023-03-24T00:57:51.273Z,11.78
2023-03-24T01:00:25.319Z,11.86
2023-03-24T01:02:56.877Z,11.84
2023-03-24T01:05:27.990Z,11.80
2023-03-24T01:08:03.492Z,11.81
2023-03-24T01:10:35.227Z,11.84
2023-03-24T01:13:03.869Z,11.79
2023-03-24T01:15:34.323Z,11.75
2023-03-24T01:18:04.243Z,11.73
2023-03-24T01:20:34.012Z,11.69
2023-03-24T01:23:05.073Z,11.65
2023-03-24T01:25:32.409Z,11.77
2023-03-24T01:27:59.174Z,11.80
2023-03-24T01:30:28.835Z,11.81
2023-03-24T01:32:56.688Z,11.87
2023-03-24T01:35:28.994Z,11.84
2023-03-24T01:37:56.543Z,11.81
2023-03-24T01:40:31.415Z,11.76
2023-03-24T01:42:58.962Z,11.68
2023-03-24T01:45:40.453Z,11.62
2023-03-24T01:48:11.978Z,11.62
2023-03-24T01:50:41.909Z,11.64
2023-03-24T01:53:09.201Z,11.72
2023-03-24T01:55:37.511Z,11.76
2023-03-24T01:58:04.467Z,11.87
2023-03-24T02:00:31.338Z,11.92
2023-03-24T02:03:06.742Z,11.89
2023-03-24T02:05:38.259Z,11.91
2023-03-24T02:08:16.643Z,11.90
2023-03-24T02:10:44.861Z,11.96
2023-03-24T02:13:11.778Z,11.99
2023-03-24T02:15:57.690Z,11.97
2023-03-24T02:19:15.815Z,11.97
2023-03-24T02:22:35.149Z,11.85
2023-03-24T02:25:56.903Z,11.82
2023-03-24T02:28:39.044Z,11.89
2023-03-24T02:31:42.695Z,11.83
2023-03-24T02:34:30.472Z,11.82
2023-03-24T02:37:40.353Z,11.77
2023-03-24T02:40:49.369Z,11.76
2023-03-24T02:43:43.292Z,11.74
2023-03-24T02:46:29.118Z,11.78
2023-03-24T02:49:39.502Z,11.65
2023-03-24T02:52:22.636Z,11.65
2023-03-24T02:54:58.536Z,11.70
2023-03-24T02:57:51.312Z,11.66
2023-03-24T03:00:47.355Z,11.78
2023-03-24T03:03:28.708Z,11.72
2023-03-24T03:06:15.173Z,11.70
2023-03-24T03:08:44.371Z,11.84
2023-03-24T03:11:16.005Z,11.96
2023-03-24T03:14:01.102Z,11.96
2023-03-24T03:16:53.335Z,11.83
2023-03-24T03:19:30.401Z,11.97
2023-03-24T03:22:01.218Z,11.94
2023-03-24T03:24:44.927Z,11.94
2023-03-24T03:27:19.314Z,11.97
2023-03-24T03:29:56.272Z,11.93
2023-03-24T03:32:31.574Z,11.90
2023-03-24T03:35:17.769Z,11.92
2023-03-24T03:38:14.578Z,11.91
2023-03-24T03:40:55.770Z,11.89
2023-03-24T03:43:25.683Z,11.93
2023-03-24T03:45:53.230Z,11.93
2023-03-24T03:48:20.400Z,12.01
2023-03-24T03:50:47.650Z,11.90
2023-03-24T03:53:19.144Z,11.94
2023-03-24T03:55:47.259Z,11.97
2023-03-24T03:58:13.970Z,12.04
2023-03-24T04:00:44.211Z,12.04
2023-03-24T04:03:31.001Z,12.02
2023-03-24T04:06:33.882Z,11.90
2023-03-24T04:09:37.644Z,11.87
2023-03-24T04:12:50.494Z,11.75
2023-03-24T04:15:41.082Z,11.90
2023-03-24T04:18:26.089Z,11.92
2023-03-24T04:21:02.126Z,11.93
2023-03-24T04:23:56.553Z,11.89
2023-03-24T04:26:51.226Z,11.92
2023-03-24T04:29:33.656Z,11.98
2023-03-24T04:32:07.691Z,11.95
2023-03-24T04:34:45.035Z,12.03
2023-03-24T04:37:19.502Z,12.02
2023-03-24T04:39:50.955Z,12.06
2023-03-24T04:42:25.610Z,11.99
2023-03-24T04:44:53.074Z,12.17
2023-03-24T04:47:24.330Z,12.09
2023-03-24T04:49:50.953Z,12.15
2023-03-24T04:52:18.102Z,12.22
2023-03-24T04:54:44.756Z,12.25
2023-03-24T04:57:11.326Z,12.15
2023-03-24T04:59:37.946Z,12.18
2023-03-24T05:02:04.508Z,12.17
2023-03-24T05:04:31.407Z,12.12
2023-03-24T05:06:57.980Z,12.10
2023-03-24T05:09:25.823Z,12.08
2023-03-24T05:11:52.582Z,12.11
2023-03-24T05:14:19.911Z,12.12
2023-03-24T05:16:46.492Z,12.19
2023-03-24T05:19:13.415Z,12.17
2023-03-24T05:21:40.060Z,12.12
2023-03-24T05:24:07.226Z,12.13
2023-03-24T05:26:34.325Z,12.13
2023-03-24T05:29:01.195Z,12.13
2023-03-24T05:31:27.734Z,12.14
2023-03-24T05:33:54.240Z,12.17
2023-03-24T05:36:20.879Z,12.19
2023-03-24T05:38:47.415Z,12.11
2023-03-24T05:41:13.924Z,12.17
2023-03-24T05:43:40.419Z,12.12
2023-03-24T05:46:07.410Z,12.13
2023-03-24T05:48:33.915Z,12.16
2023-03-24T05:51:00.462Z,12.24
2023-03-24T05:53:26.934Z,12.23
2023-03-24T05:55:53.776Z,12.23
2023-03-24T05:58:21.437Z,12.37
2023-03-24T06:00:48.308Z,12.38
2023-03-24T06:03:17.298Z,12.36
2023-03-24T06:05:45.825Z,12.14
2023-03-24T06:08:12.764Z,11.76
2023-03-24T06:10:40.575Z,11.76
2023-03-24T06:13:08.931Z,11.58
2023-03-24T06:15:36.562Z,11.70
2023-03-24T06:18:05.368Z,11.45
2023-03-24T06:20:32.205Z,11.42
2023-03-24T06:22:59.793Z,11.21
2023-03-24T06:25:28.504Z,11.07
2023-03-24T06:27:55.135Z,11.19
2023-03-24T06:30:21.861Z,11.16
2023-03-24T06:32:48.680Z,11.27
2023-03-24T06:35:16.845Z,11.27
2023-03-24T06:37:44.637Z,11.18
2023-03-24T06:40:15.137Z,11.19
2023-03-24T06:42:41.924Z,11.27
2023-03-24T06:45:09.989Z,11.33
2023-03-24T06:47:37.242Z,11.45
2023-03-24T06:50:06.874Z,11.43
2023-03-24T06:52:34.669Z,11.51
2023-03-24T06:55:02.077Z,11.45
2023-03-24T06:57:28.885Z,11.54
2023-03-24T06:59:56.486Z,11.37
2023-03-24T07:02:23.613Z,11.42
2023-03-24T07:04:50.376Z,11.44
2023-03-24T07:07:44.704Z,11.53
2023-03-24T07:10:06.206Z,11.47
2023-03-24T07:12:32.698Z,11.51
2023-03-24T07:14:59.846Z,11.55
2023-03-24T07:17:26.347Z,11.54
2023-03-24T07:19:53.081Z,11.54
2023-03-24T07:22:19.585Z,11.59
2023-03-24T07:24:46.125Z,11.42
2023-03-24T07:27:12.666Z,11.39
2023-03-24T07:29:39.136Z,11.25
2023-03-24T07:32:07.798Z,11.21
2023-03-24T07:34:36.141Z,11.25
2023-03-24T07:37:03.121Z,11.37
2023-03-24T07:39:29.715Z,11.43
2023-03-24T07:41:56.987Z,11.42
2023-03-24T07:44:23.568Z,11.47
2023-03-24T07:46:50.185Z,11.47
2023-03-24T07:49:19.673Z,11.60
2023-03-24T07:51:46.646Z,11.55
2023-03-24T07:54:13.195Z,11.57
2023-03-24T07:56:39.729Z,11.50
2023-03-24T07:59:06.306Z,11.51
2023-03-24T08:01:32.958Z,11.50
2023-03-24T08:03:59.818Z,11.52
2023-03-24T08:06:26.376Z,11.51
2023-03-24T08:08:52.862Z,11.42
2023-03-24T08:11:19.469Z,11.40
2023-03-24T08:13:45.937Z,11.36
2023-03-24T08:16:12.642Z,11.32
2023-03-24T08:18:39.327Z,11.40
2023-03-24T08:21:06.729Z,11.37
2023-03-24T08:23:33.274Z,11.43
2023-03-24T08:25:59.784Z,11.41
2023-03-24T08:28:26.353Z,11.26
2023-03-24T08:30:52.854Z,11.27
2023-03-24T08:33:19.370Z,11.41
2023-03-24T08:35:46.511Z,11.38
2023-03-24T08:38:15.674Z,11.37
2023-03-24T08:40:44.019Z,11.39
2023-03-24T08:43:15.916Z,11.43
2023-03-24T08:45:43.235Z,11.57
2023-03-24T08:48:10.285Z,11.69
2023-03-24T08:50:41.670Z,11.73
2023-03-24T08:53:11.541Z,11.79
2023-03-24T08:55:41.614Z,11.90
2023-03-24T08:58:08.473Z,11.93
2023-03-24T09:00:35.165Z,11.93
2023-03-24T09:03:01.819Z,12.02
2023-03-24T09:05:43.558Z,12.07
2023-03-24T09:08:17.982Z,12.12
2023-03-24T09:10:46.899Z,12.26
2023-03-24T09:13:14.410Z,12.19
2023-03-24T09:15:47.847Z,12.14
2023-03-24T09:18:16.006Z,12.30
2023-03-24T09:20:43.033Z,12.34
2023-03-24T09:23:09.724Z,12.41
2023-03-24T09:25:36.423Z,12.42
2023-03-24T09:28:03.089Z,12.36
2023-03-24T09:30:31.282Z,12.39
2023-03-24T09:32:59.152Z,12.40
2023-03-24T09:35:29.423Z,12.28
2023-03-24T09:37:56.434Z,12.20
2023-03-24T09:40:29.663Z,11.91
2023-03-24T09:43:07.650Z,11.88
2023-03-24T09:45:59.269Z,11.82
2023-03-24T09:48:43.895Z,11.83
2023-03-24T09:51:27.088Z,11.80
2023-03-24T09:54:22.231Z,11.89
2023-03-24T09:56:51.792Z,11.69
2023-03-24T09:59:28.920Z,11.77
2023-03-24T10:01:57.793Z,11.80
2023-03-24T10:04:32.063Z,11.68
2023-03-24T10:07:11.879Z,11.43
2023-03-24T10:09:39.095Z,11.57
2023-03-24T10:12:23.022Z,11.65
2023-03-24T10:15:12.111Z,11.43
2023-03-24T10:18:00.889Z,11.45
2023-03-24T10:20:54.637Z,11.54
2023-03-24T10:23:50.508Z,11.68
2023-03-24T10:26:55.330Z,11.75
2023-03-24T10:29:33.779Z,11.56
2023-03-24T10:32:20.700Z,11.46
2023-03-24T10:34:55.928Z,11.46
2023-03-24T10:37:22.847Z,11.66
2023-03-24T10:39:51.355Z,11.77
2023-03-24T10:42:28.326Z,12.06
2023-03-24T10:44:56.019Z,11.90
2023-03-24T10:47:27.868Z,12.04
2023-03-24T10:50:12.362Z,11.93
2023-03-24T10:52:48.776Z,11.97
2023-03-24T10:55:19.747Z,12.15
2023-03-24T10:57:53.621Z,12.47
2023-03-24T11:00:31.602Z,12.63
2023-03-24T11:03:11.745Z,12.94
2023-03-24T11:05:41.802Z,13.06
2023-03-24T11:08:17.516Z,13.15
2023-03-24T11:10:45.012Z,13.18
2023-03-24T11:13:33.514Z,13.11
2023-03-24T11:16:17.052Z,13.07
2023-03-24T11:19:01.868Z,13.19
2023-03-24T11:21:32.125Z,13.40
2023-03-24T11:24:03.698Z,13.48
2023-03-24T11:26:39.053Z,13.48
2023-03-24T11:29:13.872Z,13.15
2023-03-24T11:31:41.776Z,13.11
2023-03-24T11:34:19.874Z,13.15
2023-03-24T11:36:53.337Z,13.16
2023-03-24T11:39:32.938Z,13.24
2023-03-24T11:42:27.566Z,13.20
2023-03-24T11:44:55.287Z,13.39
2023-03-24T11:47:32.694Z,13.41
2023-03-24T11:50:11.006Z,13.25
2023-03-24T11:53:00.352Z,13.07
2023-03-24T11:55:54.411Z,13.03
2023-03-24T11:58:44.252Z,13.11
2023-03-24T12:01:22.705Z,13.00
2023-03-24T12:04:19.399Z,12.97
2023-03-24T12:07:14.957Z,13.07
2023-03-24T12:09:58.773Z,13.04
2023-03-24T12:13:02.409Z,13.26
2023-03-24T12:16:13.326Z,13.45
2023-03-24T12:19:10.889Z,13.51
2023-03-24T12:21:56.261Z,13.27
2023-03-24T12:24:56.372Z,13.38
2023-03-24T12:27:58.295Z,13.27
2023-03-24T12:30:49.138Z,13.45
2023-03-24T12:33:53.677Z,13.61
2023-03-24T12:37:09.742Z,13.45
2023-03-24T12:40:06.569Z,13.23
2023-03-24T12:42:41.990Z,13.27
2023-03-24T12:45:19.577Z,13.44
2023-03-24T12:48:04.432Z,13.54
2023-03-24T12:50:41.515Z,13.65
2023-03-24T12:53:48.724Z,13.94
2023-03-24T12:56:48.772Z,14.05
2023-03-24T12:59:52.988Z,14.19
2023-03-24T13:02:37.751Z,14.11
2023-03-24T13:05:17.756Z,14.22
2023-03-24T13:07:47.538Z,14.18
2023-03-24T13:10:47.166Z,14.06
2023-03-24T13:13:23.389Z,14.11
2023-03-24T13:15:57.217Z,14.26
2023-03-24T13:18:55.427Z,14.22
2023-03-24T13:21:26.449Z,14.02
2023-03-24T13:24:08.916Z,13.86
2023-03-24T13:27:01.309Z,13.74
2023-03-24T13:30:11.552Z,13.61
2023-03-24T13:32:52.893Z,13.58
2023-03-24T13:35:42.167Z,13.48
2023-03-24T13:38:42.224Z,13.72
2023-03-24T13:41:17.668Z,13.75
2023-03-24T13:43:59.236Z,13.81
2023-03-24T13:46:26.379Z,13.97
2023-03-24T13:48:58.825Z,13.80
2023-03-24T13:51:31.953Z,13.63
2023-03-24T13:54:11.817Z,13.78
2023-03-24T13:56:52.569Z,13.83
2023-03-24T13:59:31.564Z,14.01
2023-03-24T14:02:19.225Z,14.07
2023-03-24T14:05:02.855Z,14.28
2023-03-24T14:07:41.188Z,14.33
2023-03-24T14:10:38.575Z,14.20
2023-03-24T14:13:14.147Z,14.19
2023-03-24T14:15:58.517Z,14.18
2023-03-24T14:18:25.362Z,14.25
2023-03-24T14:20:58.279Z,14.19
2023-03-24T14:23:46.710Z,14.14
2023-03-24T14:26:30.128Z,14.07
2023-03-24T14:28:58.305Z,14.17
2023-03-24T14:31:31.866Z,14.28
2023-03-24T14:34:10.661Z,14.41
2023-03-24T14:36:44.043Z,14.44
2023-03-24T14:39:24.593Z,14.49
2023-03-24T14:41:52.575Z,14.39
2023-03-24T14:44:51.116Z,14.21
2023-03-24T14:47:25.127Z,14.06
2023-03-24T14:49:55.384Z,14.15
2023-03-24T14:52:32.198Z,14.22
2023-03-24T14:55:07.416Z,13.98
2023-03-24T14:57:50.160Z,13.81
2023-03-24T15:00:34.537Z,13.81
2023-03-24T15:03:55.990Z,13.85
2023-03-24T15:06:23.799Z,13.97
2023-03-24T15:08:58.243Z,14.03
2023-03-24T15:11:39.341Z,14.02
2023-03-24T15:14:13.827Z,14.04
2023-03-24T15:16:40.407Z,13.98
2023-03-24T15:19:22.219Z,13.86
2023-03-24T15:22:12.704Z,14.00
2023-03-24T15:24:42.909Z,14.03
2023-03-24T15:27:26.422Z,14.07
2023-03-24T15:29:58.961Z,14.03
2023-03-24T15:32:31.447Z,13.90
2023-03-24T15:35:05.511Z,13.62
2023-03-24T15:37:42.846Z,13.66
2023-03-24T15:40:41.047Z,13.41
2023-03-24T15:43:19.883Z,13.22
2023-03-24T15:46:04.643Z,12.79
2023-03-24T15:48:38.182Z,12.66
2023-03-24T15:51:12.318Z,12.70
2023-03-24T15:53:49.181Z,12.97
2023-03-24T15:56:26.400Z,12.96
2023-03-24T15:59:16.215Z,12.96
2023-03-24T16:01:45.341Z,12.91
2023-03-24T16:04:16.995Z,12.80
2023-03-24T16:06:52.925Z,12.44
2023-03-24T16:09:22.363Z,12.36
2023-03-24T16:11:49.675Z,12.43
2023-03-24T16:14:21.984Z,12.49
2023-03-24T16:16:52.629Z,12.49
2023-03-24T16:19:19.182Z,12.63
2023-03-24T16:21:45.847Z,12.64
2023-03-24T16:24:12.378Z,12.52
2023-03-24T16:26:38.912Z,12.50
2023-03-24T16:29:17.899Z,12.47
2023-03-24T16:31:51.847Z,12.35
2023-03-24T16:34:21.314Z,12.35
2023-03-24T16:36:50.959Z,12.32
2023-03-24T16:39:27.611Z,12.18
2023-03-24T16:41:55.640Z,12.15
2023-03-24T16:44:23.049Z,12.08
2023-03-24T16:46:53.881Z,12.01
2023-03-24T16:49:22.606Z,11.91
2023-03-24T16:51:50.326Z,11.92
2023-03-24T16:54:16.865Z,11.99
2023-03-24T16:56:43.610Z,12.03
2023-03-24T16:59:12.432Z,12.08
2023-03-24T17:04:22.308Z,11.90
2023-03-24T17:06:54.082Z,11.87
2023-03-24T17:09:21.638Z,11.76
2023-03-24T17:11:52.343Z,11.67
2023-03-24T17:14:18.958Z,11.71
2023-03-24T17:16:49.160Z,11.68
2023-03-24T17:19:19.322Z,11.47
2023-03-24T17:22:06.984Z,11.27
2023-03-24T17:24:36.626Z,11.25
2023-03-24T17:27:09.926Z,11.36
2023-03-24T17:29:36.545Z,11.31
2023-03-24T17:32:03.140Z,11.22
2023-03-24T17:34:29.594Z,11.12
2023-03-24T17:36:56.087Z,11.08
2023-03-24T17:39:22.716Z,10.98
2023-03-24T17:41:49.863Z,11.01
2023-03-24T17:44:16.480Z,11.12
2023-03-24T17:46:43.065Z,11.15
2023-03-24T17:49:09.521Z,11.07
2023-03-24T17:51:36.108Z,10.94
2023-03-24T17:54:03.992Z,10.80
2023-03-24T17:56:30.641Z,10.68
2023-03-24T17:58:58.731Z,10.62
2023-03-24T18:01:29.463Z,10.53
2023-03-24T18:03:57.594Z,10.55
2023-03-24T18:06:24.278Z,10.59
2023-03-24T18:08:51.964Z,10.56
2023-03-24T18:11:18.861Z,10.59
2023-03-24T18:13:46.179Z,10.65
2023-03-24T18:16:21.437Z,10.50
2023-03-24T18:18:50.599Z,10.46
2023-03-24T18:21:18.649Z,10.42
2023-03-24T18:23:46.390Z,10.32
2023-03-24T18:26:13.387Z,10.28
2023-03-24T18:28:39.923Z,10.21
2023-03-24T18:31:19.922Z,10.08
2023-03-24T18:33:48.647Z,10.07
2023-03-24T18:36:21.472Z,9.97
2023-03-24T18:38:48.889Z,9.74
2023-03-24T18:41:16.825Z,9.60
2023-03-24T18:43:47.564Z,9.65
2023-03-24T18:46:14.749Z,9.71
2023-03-24T18:48:43.506Z,9.79
2023-03-24T18:51:11.587Z,9.72
2023-03-24T18:53:39.020Z,9.74
2023-03-24T18:56:07.370Z,9.82
2023-03-24T18:58:35.678Z,9.93
2023-03-24T19:01:12.268Z,9.80
2023-03-24T19:03:40.858Z,9.40
2023-03-24T19:06:11.122Z,9.63
2023-03-24T19:08:41.987Z,9.69
2023-03-24T19:11:09.491Z,9.61
2023-03-24T19:13:36.065Z,9.64
2023-03-24T19:16:04.595Z,9.71
2023-03-24T19:18:31.195Z,9.71
2023-03-24T19:20:58.916Z,9.78
2023-03-24T19:23:26.246Z,9.77
2023-03-24T19:25:56.167Z,9.75
2023-03-24T19:28:27.087Z,9.77
2023-03-24T19:30:53.661Z,9.82
2023-03-24T19:33:20.436Z,9.89
2023-03-24T19:35:49.092Z,9.81
2023-03-24T19:38:17.696Z,9.78
2023-03-24T19:40:44.949Z,9.67
2023-03-24T19:43:11.763Z,9.73
2023-03-24T19:45:42.667Z,9.81
2023-03-24T19:48:10.672Z,9.80
2023-03-24T19:50:37.385Z,9.77
2023-03-24T19:53:04.191Z,9.73
2023-03-24T19:55:31.445Z,9.74
2023-03-24T19:57:59.437Z,9.74
2023-03-24T20:00:26.494Z,9.72
2023-03-24T20:02:53.218Z,9.69
2023-03-24T20:05:20.349Z,9.67
2023-03-24T20:07:47.128Z,9.68
2023-03-24T20:10:13.712Z,9.55
2023-03-24T20:12:40.219Z,9.57
2023-03-24T20:15:07.657Z,9.62
2023-03-24T20:17:37.612Z,9.60
2023-03-24T20:20:07.520Z,9.53
2023-03-24T20:22:34.937Z,9.51
2023-03-24T20:25:01.694Z,9.49
2023-03-24T20:27:28.284Z,9.44
2023-03-24T20:29:54.808Z,9.46
2023-03-24T20:32:21.320Z,9.43
2023-03-24T20:34:47.798Z,9.39
2023-03-24T20:37:14.361Z,9.43
2023-03-24T20:39:43.316Z,9.41
2023-03-24T20:42:11.502Z,9.38
2023-03-24T20:44:38.162Z,9.41
2023-03-24T20:47:05.053Z,9.42
2023-03-24T20:49:32.688Z,9.41
2023-03-24T20:51:59.191Z,9.35
2023-03-24T20:54:25.995Z,9.24
2023-03-24T20:56:52.625Z,9.25
2023-03-24T20:59:19.639Z,9.29
2023-03-24T21:01:48.502Z,9.25
2023-03-24T21:04:17.325Z,9.30
2023-03-24T21:06:43.932Z,9.35
2023-03-24T21:09:11.162Z,9.36
2023-03-24T21:11:37.838Z,9.35
2023-03-24T21:14:04.363Z,9.37
2023-03-24T21:16:33.696Z,9.39
2023-03-24T21:19:01.690Z,9.32
2023-03-24T21:21:29.337Z,9.33
2023-03-24T21:23:57.396Z,9.27
2023-03-24T21:26:25.187Z,9.30
2023-03-24T21:28:52.764Z,9.26
2023-03-24T21:31:29.772Z,9.30
2023-03-24T21:33:57.279Z,9.35
2023-03-24T21:36:29.848Z,9.31
2023-03-24T21:38:58.002Z,9.38
2023-03-24T21:41:24.583Z,9.42
2023-03-24T21:43:54.025Z,9.41
2023-03-24T21:46:22.561Z,9.35
2023-03-24T21:48:52.264Z,9.33
2023-03-24T21:51:38.404Z,9.36
2023-03-24T21:54:09.620Z,9.34
2023-03-24T21:56:38.043Z,9.38
2023-03-24T21:59:04.880Z,9.43
2023-03-24T22:01:33.841Z,9.44
2023-03-24T22:04:00.492Z,9.42
2023-03-24T22:06:29.063Z,9.38
2023-03-24T22:08:58.251Z,9.32
2023-03-24T22:11:25.008Z,9.25
2023-03-24T22:13:51.621Z,9.19
2023-03-24T22:16:18.149Z,9.06
2023-03-24T22:18:44.676Z,9.15
2023-03-24T22:21:12.432Z,9.19
2023-03-24T22:23:42.349Z,9.17
2023-03-24T22:26:13.244Z,9.13
2023-03-24T22:28:42.114Z,9.13
2023-03-24T22:31:16.528Z,9.12
2023-03-24T22:33:44.284Z,9.02
2023-03-24T22:36:11.580Z,8.94
2023-03-24T22:38:38.736Z,8.90
2023-03-24T22:41:10.021Z,8.80
2023-03-24T22:43:39.349Z,8.85
2023-03-24T22:46:06.579Z,8.89
2023-03-24T22:48:33.165Z,8.90
2023-03-24T22:50:59.662Z,8.79
2023-03-24T22:53:26.189Z,8.65
2023-03-24T22:55:53.305Z,8.73
2023-03-24T22:58:20.290Z,8.74
2023-03-24T23:00:49.794Z,8.81
2023-03-24T23:03:16.757Z,9.00
2023-03-24T23:05:45.937Z,9.04
2023-03-24T23:08:15.576Z,8.99
2023-03-24T23:10:46.870Z,8.95
2023-03-24T23:13:13.548Z,9.05
2023-03-24T23:15:42.290Z,8.99
2023-03-24T23:18:09.007Z,9.00
2023-03-24T23:20:36.286Z,9.03
2023-03-24T23:23:05.017Z,8.99
2023-03-24T23:25:38.256Z,8.97
2023-03-24T23:28:04.734Z,8.97
2023-03-24T23:30:31.731Z,9.00
2023-03-24T23:32:58.297Z,8.95
2023-03-24T23:35:24.818Z,8.99
2023-03-24T23:37:51.376Z,9.02
2023-03-24T23:40:19.057Z,8.96
2023-03-24T23:42:48.509Z,8.91
2023-03-24T23:45:18.941Z,8.93
2023-03-24T23:47:49.932Z,8.92
2023-03-24T23:50:19.133Z,8.86
2023-03-24T23:52:45.997Z,8.90
2023-03-24T23:55:15.393Z,8.86
2023-03-24T23:57:42.901Z,8.78
